sensor_id;sensor_type;location;lat;lon;timestamp;pressure;altitude;pressure_sealevel;temperature;humidity
70027;BME280;57506;50.092;15.804;2023-02-28T00:00:20;100293.94;;;-4.85;100.00
70027;BME280;57506;50.092;15.804;2023-02-28T00:02:46;100286.94;;;-5.03;100.00
70027;BME280;57506;50.092;15.804;2023-02-28T00:05:15;100295.00;;;-5.08;100.00
70027;BME280;57506;50.092;15.804;2023-02-28T00:07:41;100297.44;;;-5.03;100.00
70027;BME280;57506;50.092;15.804;2023-02-28T00:10:10;100296.44;;;-4.26;100.00
70027;BME280;57506;50.092;15.804;2023-02-28T00:12:36;100313.16;;;-4.27;100.00
70027;BME280;57506;50.092;15.804;2023-02-28T00:15:05;100316.16;;;-3.98;100.00
70027;BME280;57506;50.092;15.804;2023-02-28T00:17:31;100324.16;;;-3.48;100.00
70027;BME280;57506;50.092;15.804;2023-02-28T00:19:57;100331.34;;;-3.17;100.00
70027;BME280;57506;50.092;15.804;2023-02-28T00:22:26;100317.53;;;-3.22;100.00
70027;BME280;57506;50.092;15.804;2023-02-28T00:24:52;100321.88;;;-3.21;100.00
70027;BME280;57506;50.092;15.804;2023-02-28T00:27:17;100331.13;;;-3.12;100.00
70027;BME280;57506;50.092;15.804;2023-02-28T00:29:43;100327.59;;;-3.46;100.00
70027;BME280;57506;50.092;15.804;2023-02-28T00:32:08;100329.28;;;-3.79;100.00
70027;BME280;57506;50.092;15.804;2023-02-28T00:34:34;100331.69;;;-4.11;100.00
70027;BME280;57506;50.092;15.804;2023-02-28T00:37:07;100314.09;;;-4.46;100.00
70027;BME280;57506;50.092;15.804;2023-02-28T00:39:38;100329.72;;;-4.62;100.00
70027;BME280;57506;50.092;15.804;2023-02-28T00:42:05;100326.59;;;-4.89;100.00
70027;BME280;57506;50.092;15.804;2023-02-28T00:44:31;100333.88;;;-4.96;100.00
70027;BME280;57506;50.092;15.804;2023-02-28T00:46:57;100338.63;;;-5.04;100.00
70027;BME280;57506;50.092;15.804;2023-02-28T00:49:23;100338.78;;;-5.07;100.00
70027;BME280;57506;50.092;15.804;2023-02-28T00:51:49;100327.41;;;-5.07;100.00
70027;BME280;57506;50.092;15.804;2023-02-28T00:54:15;100336.59;;;-5.17;100.00
70027;BME280;57506;50.092;15.804;2023-02-28T00:56:41;100328.34;;;-5.29;100.00
70027;BME280;57506;50.092;15.804;2023-02-28T00:59:07;100331.75;;;-5.26;100.00
70027;BME280;57506;50.092;15.804;2023-02-28T01:01:32;100332.84;;;-5.32;100.00
70027;BME280;57506;50.092;15.804;2023-02-28T01:03:58;100329.66;;;-5.59;100.00
70027;BME280;57506;50.092;15.804;2023-02-28T01:06:24;100331.72;;;-5.67;100.00
70027;BME280;57506;50.092;15.804;2023-02-28T01:08:49;100329.94;;;-5.87;100.00
70027;BME280;57506;50.092;15.804;2023-02-28T01:11:17;100332.09;;;-5.96;100.00
70027;BME280;57506;50.092;15.804;2023-02-28T01:13:44;100313.63;;;-5.93;100.00
70027;BME280;57506;50.092;15.804;2023-02-28T01:16:10;100315.78;;;-6.03;100.00
70027;BME280;57506;50.092;15.804;2023-02-28T01:18:36;100310.72;;;-6.08;100.00
70027;BME280;57506;50.092;15.804;2023-02-28T01:21:07;100314.38;;;-6.12;100.00
70027;BME280;57506;50.092;15.804;2023-02-28T01:23:33;100320.63;;;-6.16;100.00
70027;BME280;57506;50.092;15.804;2023-02-28T01:26:07;100316.13;;;-6.12;100.00
70027;BME280;57506;50.092;15.804;2023-02-28T01:28:33;100314.88;;;-6.24;100.00
70027;BME280;57506;50.092;15.804;2023-02-28T01:30:59;100322.03;;;-6.29;100.00
70027;BME280;57506;50.092;15.804;2023-02-28T01:33:25;100300.75;;;-6.43;100.00
70027;BME280;57506;50.092;15.804;2023-02-28T01:35:58;100312.97;;;-6.42;100.00
70027;BME280;57506;50.092;15.804;2023-02-28T01:38:23;100305.31;;;-6.48;100.00
70027;BME280;57506;50.092;15.804;2023-02-28T01:40:49;100311.56;;;-6.51;100.00
70027;BME280;57506;50.092;15.804;2023-02-28T01:43:31;100306.06;;;-6.45;100.00
70027;BME280;57506;50.092;15.804;2023-02-28T01:45:58;100310.56;;;-6.48;100.00
70027;BME280;57506;50.092;15.804;2023-02-28T01:48:31;100301.44;;;-6.38;100.00
70027;BME280;57506;50.092;15.804;2023-02-28T01:51:00;100294.50;;;-6.39;100.00
70027;BME280;57506;50.092;15.804;2023-02-28T01:53:33;100277.13;;;-6.00;100.00
70027;BME280;57506;50.092;15.804;2023-02-28T01:56:00;100270.09;;;-5.79;100.00
70027;BME280;57506;50.092;15.804;2023-02-28T01:58:28;100252.59;;;-5.98;100.00
70027;BME280;57506;50.092;15.804;2023-02-28T02:00:54;100282.22;;;-6.17;100.00
70027;BME280;57506;50.092;15.804;2023-02-28T02:03:20;100273.88;;;-6.26;100.00
70027;BME280;57506;50.092;15.804;2023-02-28T02:05:46;100262.78;;;-6.55;100.00
70027;BME280;57506;50.092;15.804;2023-02-28T02:08:23;100260.75;;;-6.48;100.00
70027;BME280;57506;50.092;15.804;2023-02-28T02:10:59;100259.06;;;-6.49;100.00
70027;BME280;57506;50.092;15.804;2023-02-28T02:19:03;100256.88;;;-6.38;100.00
70027;BME280;57506;50.092;15.804;2023-02-28T02:21:56;100256.88;;;-6.38;100.00
70027;BME280;57506;50.092;15.804;2023-02-28T02:43:25;100266.38;;;-6.81;100.00
70027;BME280;57506;50.092;15.804;2023-02-28T02:46:06;100252.72;;;-6.65;100.00
70027;BME280;57506;50.092;15.804;2023-02-28T02:48:36;100250.41;;;-6.51;100.00
70027;BME280;57506;50.092;15.804;2023-02-28T02:51:07;100245.28;;;-6.54;100.00
70027;BME280;57506;50.092;15.804;2023-02-28T02:53:47;100252.41;;;-6.58;100.00
70027;BME280;57506;50.092;15.804;2023-02-28T02:56:15;100251.66;;;-6.61;100.00
70027;BME280;57506;50.092;15.804;2023-02-28T02:58:44;100246.53;;;-6.64;100.00
70027;BME280;57506;50.092;15.804;2023-02-28T03:01:16;100249.53;;;-6.74;100.00
70027;BME280;57506;50.092;15.804;2023-02-28T03:03:43;100249.69;;;-6.78;100.00
70027;BME280;57506;50.092;15.804;2023-02-28T03:06:09;100247.28;;;-6.83;100.00
70027;BME280;57506;50.092;15.804;2023-02-28T03:08:37;100257.75;;;-6.83;100.00
70027;BME280;57506;50.092;15.804;2023-02-28T03:11:06;100248.00;;;-6.79;100.00
70027;BME280;57506;50.092;15.804;2023-02-28T03:14:00;100266.00;;;-6.93;100.00
70027;BME280;57506;50.092;15.804;2023-02-28T03:16:38;100269.97;;;-7.05;100.00
70027;BME280;57506;50.092;15.804;2023-02-28T03:22:00;100264.38;;;-7.19;100.00
70027;BME280;57506;50.092;15.804;2023-02-28T03:28:13;100258.00;;;-7.35;100.00
70027;BME280;57506;50.092;15.804;2023-02-28T03:30:33;100258.00;;;-7.35;100.00
70027;BME280;57506;50.092;15.804;2023-02-28T03:33:28;100261.53;;;-7.36;100.00
70027;BME280;57506;50.092;15.804;2023-02-28T03:36:09;100255.63;;;-7.43;100.00
70027;BME280;57506;50.092;15.804;2023-02-28T03:38:38;100268.69;;;-7.42;100.00
70027;BME280;57506;50.092;15.804;2023-02-28T03:41:11;100252.69;;;-7.34;100.00
70027;BME280;57506;50.092;15.804;2023-02-28T03:43:41;100248.25;;;-7.32;100.00
70027;BME280;57506;50.092;15.804;2023-02-28T03:46:11;100249.78;;;-7.26;100.00
70027;BME280;57506;50.092;15.804;2023-02-28T03:48:51;100243.97;;;-7.11;100.00
70027;BME280;57506;50.092;15.804;2023-02-28T03:51:22;100247.44;;;-6.87;100.00
70027;BME280;57506;50.092;15.804;2023-02-28T03:53:54;100252.31;;;-7.00;100.00
70027;BME280;57506;50.092;15.804;2023-02-28T03:56:29;100247.13;;;-7.25;100.00
70027;BME280;57506;50.092;15.804;2023-02-28T04:04:01;100257.75;;;-7.29;100.00
70027;BME280;57506;50.092;15.804;2023-02-28T04:06:31;100251.88;;;-7.13;100.00
70027;BME280;57506;50.092;15.804;2023-02-28T04:08:57;100255.16;;;-7.06;100.00
70027;BME280;57506;50.092;15.804;2023-02-28T04:11:53;100258.25;;;-6.96;100.00
70027;BME280;57506;50.092;15.804;2023-02-28T04:14:21;100256.84;;;-7.05;100.00
70027;BME280;57506;50.092;15.804;2023-02-28T04:16:46;100269.03;;;-7.04;100.00
70027;BME280;57506;50.092;15.804;2023-02-28T04:19:13;100265.22;;;-6.95;100.00
70027;BME280;57506;50.092;15.804;2023-02-28T04:21:40;100271.44;;;-6.98;100.00
70027;BME280;57506;50.092;15.804;2023-02-28T04:24:07;100258.63;;;-7.06;100.00
70027;BME280;57506;50.092;15.804;2023-02-28T04:26:36;100270.88;;;-7.06;100.00
70027;BME280;57506;50.092;15.804;2023-02-28T04:29:03;100275.34;;;-7.10;100.00
70027;BME280;57506;50.092;15.804;2023-02-28T04:31:29;100275.84;;;-6.98;100.00
70027;BME280;57506;50.092;15.804;2023-02-28T04:33:55;100262.44;;;-6.91;100.00
70027;BME280;57506;50.092;15.804;2023-02-28T04:36:20;100262.03;;;-7.03;100.00
70027;BME280;57506;50.092;15.804;2023-02-28T04:38:48;100263.91;;;-7.07;100.00
70027;BME280;57506;50.092;15.804;2023-02-28T04:41:13;100260.16;;;-7.00;100.00
70027;BME280;57506;50.092;15.804;2023-02-28T04:43:39;100268.72;;;-6.73;100.00
70027;BME280;57506;50.092;15.804;2023-02-28T04:46:06;100258.88;;;-6.66;100.00
70027;BME280;57506;50.092;15.804;2023-02-28T04:48:34;100265.63;;;-6.61;100.00
70027;BME280;57506;50.092;15.804;2023-02-28T04:51:01;100264.53;;;-6.55;100.00
70027;BME280;57506;50.092;15.804;2023-02-28T04:53:28;100268.06;;;-6.56;100.00
70027;BME280;57506;50.092;15.804;2023-02-28T04:55:54;100270.81;;;-6.59;100.00
70027;BME280;57506;50.092;15.804;2023-02-28T04:58:20;100274.59;;;-6.66;100.00
70027;BME280;57506;50.092;15.804;2023-02-28T05:00:48;100266.91;;;-6.71;100.00
70027;BME280;57506;50.092;15.804;2023-02-28T05:03:13;100272.88;;;-6.46;100.00
70027;BME280;57506;50.092;15.804;2023-02-28T05:05:39;100272.66;;;-6.40;100.00
70027;BME280;57506;50.092;15.804;2023-02-28T05:08:04;100282.41;;;-6.43;100.00
70027;BME280;57506;50.092;15.804;2023-02-28T05:10:30;100274.72;;;-6.48;100.00
70027;BME280;57506;50.092;15.804;2023-02-28T05:12:56;100279.13;;;-6.26;100.00
70027;BME280;57506;50.092;15.804;2023-02-28T05:15:21;100277.72;;;-6.35;100.00
70027;BME280;57506;50.092;15.804;2023-02-28T05:17:47;100282.38;;;-6.65;100.00
70027;BME280;57506;50.092;15.804;2023-02-28T05:20:12;100298.88;;;-6.85;100.00
70027;BME280;57506;50.092;15.804;2023-02-28T05:22:42;100306.69;;;-6.83;100.00
70027;BME280;57506;50.092;15.804;2023-02-28T05:25:11;100308.84;;;-6.71;100.00
70027;BME280;57506;50.092;15.804;2023-02-28T05:27:37;100303.66;;;-6.49;100.00
70027;BME280;57506;50.092;15.804;2023-02-28T05:30:03;100304.06;;;-6.38;100.00
70027;BME280;57506;50.092;15.804;2023-02-28T05:32:29;100313.56;;;-6.57;100.00
70027;BME280;57506;50.092;15.804;2023-02-28T05:34:55;100320.66;;;-6.83;100.00
70027;BME280;57506;50.092;15.804;2023-02-28T05:37:20;100329.34;;;-7.06;100.00
70027;BME280;57506;50.092;15.804;2023-02-28T05:39:46;100332.56;;;-7.22;100.00
70027;BME280;57506;50.092;15.804;2023-02-28T05:42:11;100343.38;;;-7.31;100.00
70027;BME280;57506;50.092;15.804;2023-02-28T05:44:36;100350.84;;;-7.46;100.00
70027;BME280;57506;50.092;15.804;2023-02-28T05:47:02;100342.78;;;-7.39;100.00
70027;BME280;57506;50.092;15.804;2023-02-28T05:49:28;100347.53;;;-7.26;100.00
70027;BME280;57506;50.092;15.804;2023-02-28T05:51:54;100339.00;;;-7.31;100.00
70027;BME280;57506;50.092;15.804;2023-02-28T05:54:19;100350.19;;;-7.27;100.00
70027;BME280;57506;50.092;15.804;2023-02-28T05:56:45;100344.53;;;-7.40;100.00
70027;BME280;57506;50.092;15.804;2023-02-28T05:59:12;100350.75;;;-7.43;100.00
70027;BME280;57506;50.092;15.804;2023-02-28T06:01:42;100352.41;;;-7.40;100.00
70027;BME280;57506;50.092;15.804;2023-02-28T06:04:14;100339.50;;;-7.46;100.00
70027;BME280;57506;50.092;15.804;2023-02-28T06:06:43;100345.09;;;-7.30;100.00
70027;BME280;57506;50.092;15.804;2023-02-28T06:09:10;100351.81;;;-7.23;100.00
70027;BME280;57506;50.092;15.804;2023-02-28T06:11:36;100353.72;;;-7.28;100.00
70027;BME280;57506;50.092;15.804;2023-02-28T06:14:02;100351.09;;;-7.28;100.00
70027;BME280;57506;50.092;15.804;2023-02-28T06:16:28;100358.66;;;-7.19;100.00
70027;BME280;57506;50.092;15.804;2023-02-28T06:18:56;100356.50;;;-7.08;100.00
70027;BME280;57506;50.092;15.804;2023-02-28T06:21:22;100346.94;;;-7.09;100.00
70027;BME280;57506;50.092;15.804;2023-02-28T06:23:47;100360.69;;;-7.02;100.00
70027;BME280;57506;50.092;15.804;2023-02-28T06:26:13;100356.06;;;-6.96;100.00
70027;BME280;57506;50.092;15.804;2023-02-28T06:28:39;100347.94;;;-6.88;100.00
70027;BME280;57506;50.092;15.804;2023-02-28T06:31:07;100355.63;;;-6.84;100.00
70027;BME280;57506;50.092;15.804;2023-02-28T06:33:33;100341.47;;;-6.80;100.00
70027;BME280;57506;50.092;15.804;2023-02-28T06:35:59;100346.16;;;-6.64;100.00
70027;BME280;57506;50.092;15.804;2023-02-28T06:38:24;100342.16;;;-6.51;100.00
70027;BME280;57506;50.092;15.804;2023-02-28T06:40:58;100345.38;;;-6.21;100.00
70027;BME280;57506;50.092;15.804;2023-02-28T06:43:25;100354.09;;;-6.21;100.00
70027;BME280;57506;50.092;15.804;2023-02-28T06:45:54;100349.66;;;-6.19;100.00
70027;BME280;57506;50.092;15.804;2023-02-28T06:48:20;100352.81;;;-6.11;100.00
70027;BME280;57506;50.092;15.804;2023-02-28T06:50:45;100345.56;;;-6.04;100.00
70027;BME280;57506;50.092;15.804;2023-02-28T06:53:12;100366.69;;;-5.87;100.00
70027;BME280;57506;50.092;15.804;2023-02-28T06:55:38;100354.03;;;-5.77;100.00
70027;BME280;57506;50.092;15.804;2023-02-28T06:58:04;100360.47;;;-5.64;100.00
70027;BME280;57506;50.092;15.804;2023-02-28T07:00:43;100366.22;;;-5.54;100.00
70027;BME280;57506;50.092;15.804;2023-02-28T07:03:09;100366.50;;;-5.40;100.00
70027;BME280;57506;50.092;15.804;2023-02-28T07:05:36;100373.66;;;-5.23;100.00
70027;BME280;57506;50.092;15.804;2023-02-28T07:08:03;100376.47;;;-5.08;100.00
70027;BME280;57506;50.092;15.804;2023-02-28T07:10:30;100385.66;;;-4.98;100.00
70027;BME280;57506;50.092;15.804;2023-02-28T07:12:55;100385.59;;;-4.76;100.00
70027;BME280;57506;50.092;15.804;2023-02-28T07:15:21;100383.44;;;-4.68;100.00
70027;BME280;57506;50.092;15.804;2023-02-28T07:17:46;100380.56;;;-4.62;100.00
70027;BME280;57506;50.092;15.804;2023-02-28T07:20:12;100382.75;;;-4.52;100.00
70027;BME280;57506;50.092;15.804;2023-02-28T07:22:38;100386.88;;;-4.47;100.00
70027;BME280;57506;50.092;15.804;2023-02-28T07:25:04;100396.63;;;-4.30;100.00
70027;BME280;57506;50.092;15.804;2023-02-28T07:27:30;100398.06;;;-4.23;100.00
70027;BME280;57506;50.092;15.804;2023-02-28T07:29:56;100412.44;;;-4.11;100.00
70027;BME280;57506;50.092;15.804;2023-02-28T07:32:22;100410.00;;;-3.97;100.00
70027;BME280;57506;50.092;15.804;2023-02-28T07:34:48;100408.88;;;-3.92;100.00
70027;BME280;57506;50.092;15.804;2023-02-28T07:37:14;100408.22;;;-3.78;100.00
70027;BME280;57506;50.092;15.804;2023-02-28T07:39:40;100411.44;;;-3.73;100.00
70027;BME280;57506;50.092;15.804;2023-02-28T07:42:07;100408.47;;;-3.65;100.00
70027;BME280;57506;50.092;15.804;2023-02-28T07:44:36;100417.59;;;-3.55;100.00
70027;BME280;57506;50.092;15.804;2023-02-28T07:47:07;100425.94;;;-3.45;100.00
70027;BME280;57506;50.092;15.804;2023-02-28T07:49:34;100430.50;;;-3.32;100.00
70027;BME280;57506;50.092;15.804;2023-02-28T07:51:59;100450.22;;;-3.04;100.00
70027;BME280;57506;50.092;15.804;2023-02-28T07:54:25;100450.56;;;-2.93;100.00
70027;BME280;57506;50.092;15.804;2023-02-28T07:56:50;100454.56;;;-2.86;100.00
70027;BME280;57506;50.092;15.804;2023-02-28T07:59:16;100458.59;;;-2.62;100.00
70027;BME280;57506;50.092;15.804;2023-02-28T08:01:41;100468.63;;;-2.35;100.00
70027;BME280;57506;50.092;15.804;2023-02-28T08:04:09;100466.72;;;-2.16;100.00
70027;BME280;57506;50.092;15.804;2023-02-28T08:06:34;100471.06;;;-2.15;100.00
70027;BME280;57506;50.092;15.804;2023-02-28T08:09:00;100463.56;;;-2.07;100.00
70027;BME280;57506;50.092;15.804;2023-02-28T08:11:25;100458.63;;;-2.13;100.00
70027;BME280;57506;50.092;15.804;2023-02-28T08:13:51;100465.56;;;-1.95;100.00
70027;BME280;57506;50.092;15.804;2023-02-28T08:16:17;100465.28;;;-1.74;100.00
70027;BME280;57506;50.092;15.804;2023-02-28T08:18:51;100468.03;;;-1.76;100.00
70027;BME280;57506;50.092;15.804;2023-02-28T08:21:17;100474.16;;;-1.44;100.00
70027;BME280;57506;50.092;15.804;2023-02-28T08:23:48;100460.06;;;-1.45;100.00
70027;BME280;57506;50.092;15.804;2023-02-28T08:26:18;100471.75;;;-1.17;100.00
70027;BME280;57506;50.092;15.804;2023-02-28T08:28:44;100469.66;;;-1.12;100.00
70027;BME280;57506;50.092;15.804;2023-02-28T08:31:11;100469.63;;;-0.96;99.71
70027;BME280;57506;50.092;15.804;2023-02-28T08:33:37;100473.38;;;-1.15;100.00
70027;BME280;57506;50.092;15.804;2023-02-28T08:36:04;100481.34;;;-1.00;100.00
70027;BME280;57506;50.092;15.804;2023-02-28T08:38:31;100475.16;;;-0.85;100.00
70027;BME280;57506;50.092;15.804;2023-02-28T08:40:58;100473.56;;;-0.74;98.58
70027;BME280;57506;50.092;15.804;2023-02-28T08:43:24;100467.84;;;-0.66;97.67
70027;BME280;57506;50.092;15.804;2023-02-28T08:45:53;100472.84;;;-0.47;99.19
70027;BME280;57506;50.092;15.804;2023-02-28T08:48:18;100470.88;;;-0.44;97.97
70027;BME280;57506;50.092;15.804;2023-02-28T08:50:54;100471.47;;;-0.39;96.46
70027;BME280;57506;50.092;15.804;2023-02-28T08:53:19;100471.75;;;-0.29;95.68
70027;BME280;57506;50.092;15.804;2023-02-28T08:55:45;100480.94;;;-0.20;94.83
70027;BME280;57506;50.092;15.804;2023-02-28T08:58:11;100479.50;;;-0.26;93.24
70027;BME280;57506;50.092;15.804;2023-02-28T09:00:36;100482.06;;;-0.24;93.77
70027;BME280;57506;50.092;15.804;2023-02-28T09:03:02;100474.50;;;-0.16;91.72
70027;BME280;57506;50.092;15.804;2023-02-28T09:05:28;100467.28;;;-0.14;94.61
70027;BME280;57506;50.092;15.804;2023-02-28T09:07:55;100471.97;;;-0.18;92.25
70027;BME280;57506;50.092;15.804;2023-02-28T09:10:20;100460.69;;;-0.07;94.39
70027;BME280;57506;50.092;15.804;2023-02-28T09:12:46;100469.38;;;0.09;93.29
70027;BME280;57506;50.092;15.804;2023-02-28T09:15:12;100457.44;;;0.16;88.14
70027;BME280;57506;50.092;15.804;2023-02-28T09:17:38;100471.53;;;0.17;90.64
70027;BME280;57506;50.092;15.804;2023-02-28T09:20:04;100470.97;;;0.26;87.13
70027;BME280;57506;50.092;15.804;2023-02-28T09:22:30;100462.69;;;0.45;85.63
70027;BME280;57506;50.092;15.804;2023-02-28T09:24:56;100457.09;;;0.35;85.10
70027;BME280;57506;50.092;15.804;2023-02-28T09:27:21;100456.34;;;0.47;88.74
70027;BME280;57506;50.092;15.804;2023-02-28T09:29:47;100461.56;;;0.49;85.68
70027;BME280;57506;50.092;15.804;2023-02-28T09:32:12;100449.44;;;0.72;86.15
70027;BME280;57506;50.092;15.804;2023-02-28T09:34:38;100454.06;;;0.68;86.32
70027;BME280;57506;50.092;15.804;2023-02-28T09:37:04;100456.16;;;0.77;84.91
70027;BME280;57506;50.092;15.804;2023-02-28T09:39:29;100457.69;;;0.67;82.23
70027;BME280;57506;50.092;15.804;2023-02-28T09:41:56;100451.50;;;0.81;83.34
70027;BME280;57506;50.092;15.804;2023-02-28T09:44:33;100462.66;;;0.98;80.96
70027;BME280;57506;50.092;15.804;2023-02-28T09:47:27;100446.91;;;0.83;82.56
70027;BME280;57506;50.092;15.804;2023-02-28T09:49:51;100451.81;;;0.89;86.56
70027;BME280;57506;50.092;15.804;2023-02-28T09:52:22;100459.06;;;0.99;80.78
70027;BME280;57506;50.092;15.804;2023-02-28T09:54:51;100455.69;;;0.97;83.06
70027;BME280;57506;50.092;15.804;2023-02-28T09:57:25;100466.31;;;0.97;84.34
70027;BME280;57506;50.092;15.804;2023-02-28T10:00:14;100464.63;;;1.09;78.45
70027;BME280;57506;50.092;15.804;2023-02-28T10:03:04;100464.78;;;0.93;79.64
70027;BME280;57506;50.092;15.804;2023-02-28T10:05:40;100464.84;;;0.79;82.09
70027;BME280;57506;50.092;15.804;2023-02-28T10:10:49;100463.31;;;0.62;80.90
70027;BME280;57506;50.092;15.804;2023-02-28T10:16:00;100466.44;;;0.82;83.33
70027;BME280;57506;50.092;15.804;2023-02-28T10:19:02;100469.47;;;1.02;84.57
70027;BME280;57506;50.092;15.804;2023-02-28T10:24:05;100447.97;;;1.20;82.69
70027;BME280;57506;50.092;15.804;2023-02-28T10:26:36;100455.78;;;1.61;80.28
70027;BME280;57506;50.092;15.804;2023-02-28T10:29:02;100463.84;;;1.59;81.55
70027;BME280;57506;50.092;15.804;2023-02-28T10:31:28;100461.28;;;1.70;80.66
70027;BME280;57506;50.092;15.804;2023-02-28T10:33:54;100455.22;;;1.43;77.99
70027;BME280;57506;50.092;15.804;2023-02-28T10:36:21;100455.53;;;1.51;81.07
70027;BME280;57506;50.092;15.804;2023-02-28T10:38:47;100457.03;;;1.43;79.59
70027;BME280;57506;50.092;15.804;2023-02-28T10:41:35;100453.31;;;1.58;80.93
70027;BME280;57506;50.092;15.804;2023-02-28T10:44:21;100443.56;;;1.46;79.85
70027;BME280;57506;50.092;15.804;2023-02-28T10:46:48;100440.25;;;1.42;81.41
70027;BME280;57506;50.092;15.804;2023-02-28T10:49:21;100448.00;;;1.58;81.03
70027;BME280;57506;50.092;15.804;2023-02-28T10:51:54;100438.13;;;1.72;79.92
70027;BME280;57506;50.092;15.804;2023-02-28T10:54:30;100443.97;;;1.52;78.07
70027;BME280;57506;50.092;15.804;2023-02-28T10:57:28;100442.50;;;1.61;80.06
70027;BME280;57506;50.092;15.804;2023-02-28T11:00:22;100431.53;;;1.65;79.22
70027;BME280;57506;50.092;15.804;2023-02-28T11:02:51;100428.88;;;1.65;78.58
70027;BME280;57506;50.092;15.804;2023-02-28T11:07:57;100433.03;;;1.57;77.87
70027;BME280;57506;50.092;15.804;2023-02-28T11:10:28;100434.81;;;1.56;77.90
70027;BME280;57506;50.092;15.804;2023-02-28T11:12:56;100437.28;;;1.59;77.39
70027;BME280;57506;50.092;15.804;2023-02-28T11:15:33;100431.84;;;1.48;78.43
70027;BME280;57506;50.092;15.804;2023-02-28T11:18:39;100435.69;;;1.44;79.25
70027;BME280;57506;50.092;15.804;2023-02-28T11:21:06;100428.13;;;1.38;79.07
70027;BME280;57506;50.092;15.804;2023-02-28T11:23:35;100419.94;;;1.41;79.00
70027;BME280;57506;50.092;15.804;2023-02-28T11:26:03;100417.19;;;1.43;79.25
70027;BME280;57506;50.092;15.804;2023-02-28T11:28:39;100423.34;;;1.68;79.11
70027;BME280;57506;50.092;15.804;2023-02-28T11:36:21;100400.50;;;1.53;78.52
70027;BME280;57506;50.092;15.804;2023-02-28T11:38:51;100402.75;;;1.59;77.18
70027;BME280;57506;50.092;15.804;2023-02-28T11:41:19;100402.63;;;1.73;76.40
70027;BME280;57506;50.092;15.804;2023-02-28T11:47:00;100397.94;;;1.64;77.28
70027;BME280;57506;50.092;15.804;2023-02-28T12:05:48;100392.84;;;1.49;75.18
70027;BME280;57506;50.092;15.804;2023-02-28T12:08:26;100398.59;;;1.55;75.71
70027;BME280;57506;50.092;15.804;2023-02-28T12:24:39;100383.47;;;1.81;72.29
70027;BME280;57506;50.092;15.804;2023-02-28T12:27:12;100376.00;;;1.86;73.75
70027;BME280;57506;50.092;15.804;2023-02-28T12:30:13;100374.06;;;2.01;73.53
70027;BME280;57506;50.092;15.804;2023-02-28T12:32:44;100370.50;;;2.13;75.16
70027;BME280;57506;50.092;15.804;2023-02-28T12:35:18;100375.28;;;2.44;71.70
70027;BME280;57506;50.092;15.804;2023-02-28T12:38:02;100371.09;;;2.53;73.58
70027;BME280;57506;50.092;15.804;2023-02-28T12:40:44;100358.06;;;2.61;72.84
70027;BME280;57506;50.092;15.804;2023-02-28T12:43:13;100365.72;;;2.66;73.50
70027;BME280;57506;50.092;15.804;2023-02-28T12:48:20;100364.31;;;2.84;69.91
70027;BME280;57506;50.092;15.804;2023-02-28T12:50:47;100366.66;;;3.00;66.08
70027;BME280;57506;50.092;15.804;2023-02-28T13:10:47;100333.31;;;3.63;67.87
70027;BME280;57506;50.092;15.804;2023-02-28T13:13:22;100343.16;;;3.73;66.12
70027;BME280;57506;50.092;15.804;2023-02-28T13:16:08;100327.38;;;3.81;66.05
70027;BME280;57506;50.092;15.804;2023-02-28T13:18:41;100340.41;;;4.07;62.72
70027;BME280;57506;50.092;15.804;2023-02-28T13:21:30;100343.75;;;3.88;60.41
70027;BME280;57506;50.092;15.804;2023-02-28T13:24:04;100343.63;;;3.90;65.59
70027;BME280;57506;50.092;15.804;2023-02-28T13:39:52;100339.38;;;3.65;62.53
70027;BME280;57506;50.092;15.804;2023-02-28T13:47:45;100325.81;;;3.68;61.31
70027;BME280;57506;50.092;15.804;2023-02-28T14:01:30;100324.50;;;3.40;64.74
70027;BME280;57506;50.092;15.804;2023-02-28T14:06:57;100328.97;;;3.39;62.45
70027;BME280;57506;50.092;15.804;2023-02-28T14:09:31;100323.75;;;3.38;62.90
70027;BME280;57506;50.092;15.804;2023-02-28T14:15:02;100324.84;;;3.46;60.65
70027;BME280;57506;50.092;15.804;2023-02-28T14:17:28;100316.59;;;3.61;60.11
70027;BME280;57506;50.092;15.804;2023-02-28T14:19:55;100320.97;;;3.50;60.78
70027;BME280;57506;50.092;15.804;2023-02-28T14:25:33;100310.28;;;3.62;61.22
70027;BME280;57506;50.092;15.804;2023-02-28T14:28:18;100308.13;;;3.56;61.06
70027;BME280;57506;50.092;15.804;2023-02-28T14:33:35;100310.19;;;3.41;59.44
70027;BME280;57506;50.092;15.804;2023-02-28T14:36:26;100315.66;;;3.39;59.08
70027;BME280;57506;50.092;15.804;2023-02-28T14:38:56;100299.16;;;3.34;59.26
70027;BME280;57506;50.092;15.804;2023-02-28T14:41:29;100311.63;;;3.45;60.54
70027;BME280;57506;50.092;15.804;2023-02-28T14:43:58;100301.94;;;3.33;59.89
70027;BME280;57506;50.092;15.804;2023-02-28T14:46:56;100306.06;;;3.48;60.08
70027;BME280;57506;50.092;15.804;2023-02-28T14:49:32;100300.97;;;3.45;59.83
70027;BME280;57506;50.092;15.804;2023-02-28T14:54:52;100303.38;;;3.59;61.24
70027;BME280;57506;50.092;15.804;2023-02-28T14:57:32;100306.06;;;3.59;59.24
70027;BME280;57506;50.092;15.804;2023-02-28T15:02:39;100305.59;;;3.32;59.71
70027;BME280;57506;50.092;15.804;2023-02-28T15:07:43;100305.81;;;3.29;60.36
70027;BME280;57506;50.092;15.804;2023-02-28T15:10:22;100305.59;;;3.32;59.63
70027;BME280;57506;50.092;15.804;2023-02-28T15:20:48;100300.38;;;3.41;62.66
70027;BME280;57506;50.092;15.804;2023-02-28T15:23:14;100298.56;;;3.31;60.42
70027;BME280;57506;50.092;15.804;2023-02-28T15:25:41;100295.03;;;3.30;60.48
70027;BME280;57506;50.092;15.804;2023-02-28T15:28:13;100287.56;;;3.24;61.68
70027;BME280;57506;50.092;15.804;2023-02-28T15:30:39;100275.78;;;3.15;60.06
70027;BME280;57506;50.092;15.804;2023-02-28T15:33:22;100293.69;;;3.13;60.06